Time;durP1;ratioP1;P1;durP2;ratioP2;P2;SDS_P1;SDS_P2;PMS_P1;PMS_P2;Temp;Humidity;BMP_temperature;BMP_pressure;BME280_temperature;BME280_humidity;BME280_pressure;Samples;Min_cycle;Max_cycle;Signal;HPM_P1;HPM_P2
2023/08/20 00:01:16;;;;;;;9.65;6.72;;;;;;;23.12;63.13;95453.06;5047188;28;20658;-75
2023/08/20 00:03:43;;;;;;;11.77;6.95;;;;;;;23.05;63.27;95447.13;5051016;28;20258;-76
2023/08/20 00:06:09;;;;;;;12.32;7.22;;;;;;;23.03;63.56;95441.25;5036962;28;20258;-75
2023/08/20 00:08:34;;;;;;;11.02;7.05;;;;;;;22.97;63.39;95447.66;5042567;28;20633;-75
2023/08/20 00:11:00;;;;;;;10.57;7.35;;;;;;;23.01;63.59;95449.53;5016383;28;20236;-76
2023/08/20 00:13:26;;;;;;;12.73;7.88;;;;;;;23.01;63.53;95446.88;5047452;28;20226;-75
2023/08/20 00:15:51;;;;;;;13.93;7.72;;;;;;;23.04;63.48;95442.88;5083699;28;20237;-75
2023/08/20 00:18:17;;;;;;;13.43;7.25;;;;;;;23.03;63.69;95444.75;5085094;28;20234;-76
2023/08/20 00:20:45;;;;;;;10.95;7.10;;;;;;;23.00;63.80;95442.59;5087590;28;20621;-75
2023/08/20 00:23:11;;;;;;;16.33;7.85;;;;;;;23.04;63.70;95445.53;5059113;28;20315;-71
2023/08/20 00:25:37;;;;;;;12.00;7.60;;;;;;;23.05;63.60;95441.78;5090493;28;20232;-71
2023/08/20 00:28:02;;;;;;;11.52;7.63;;;;;;;22.90;64.04;95439.91;5070174;28;20251;-71
2023/08/20 00:30:28;;;;;;;10.20;7.40;;;;;;;23.04;63.60;95449.03;5088708;28;20232;-71
2023/08/20 00:32:53;;;;;;;10.45;7.32;;;;;;;23.06;63.10;95443.41;5072980;28;20220;-71
2023/08/20 00:35:18;;;;;;;9.65;7.05;;;;;;;23.09;63.39;95445.56;5089615;28;20232;-71
2023/08/20 00:37:44;;;;;;;13.07;7.70;;;;;;;23.06;63.26;95441.53;5056520;28;20223;-70
2023/08/20 00:40:10;;;;;;;11.20;7.40;;;;;;;22.95;63.70;95447.13;5069739;28;20220;-70
2023/08/20 00:42:36;;;;;;;10.50;7.10;;;;;;;22.86;64.35;95435.34;5071467;28;20251;-70
2023/08/20 00:45:03;;;;;;;12.05;7.53;;;;;;;22.74;64.40;95446.25;5092155;28;20228;-71
2023/08/20 00:47:29;;;;;;;12.43;7.60;;;;;;;22.78;64.97;95442.03;5036853;28;20219;-70
2023/08/20 00:49:54;;;;;;;10.35;7.00;;;;;;;22.67;65.28;95443.03;5038594;28;20250;-70
2023/08/20 00:52:20;;;;;;;12.48;7.32;;;;;;;22.49;66.21;95441.63;5071602;28;20244;-71
2023/08/20 00:54:46;;;;;;;11.50;7.32;;;;;;;22.40;66.87;95443.16;5070934;28;20231;-70
2023/08/20 00:57:17;;;;;;;10.20;7.15;;;;;;;22.40;67.09;95443.16;5045985;28;20728;-71
2023/08/20 00:59:42;;;;;;;10.50;7.47;;;;;;;22.35;67.57;95447.69;5052072;28;20236;-70
2023/08/20 01:02:08;;;;;;;9.45;7.35;;;;;;;22.38;67.45;95441.84;5050707;28;20669;-70
2023/08/20 01:04:33;;;;;;;10.77;7.38;;;;;;;22.23;68.17;95436.41;5043257;28;20236;-71
2023/08/20 01:07:20;;;;;;;10.30;7.15;;;;;;;21.97;69.04;95433.59;5039421;28;20240;-69
2023/08/20 01:10:04;;;;;;;12.70;7.53;;;;;;;22.17;68.72;95440.09;5031707;28;20757;-71
2023/08/20 01:12:31;;;;;;;12.77;7.80;;;;;;;22.22;68.16;95437.47;5050330;28;20302;-69
2023/08/20 01:14:56;;;;;;;12.13;8.07;;;;;;;22.05;69.29;95437.66;5040008;28;20217;-71
2023/08/20 01:17:22;;;;;;;12.93;7.70;;;;;;;22.04;69.04;95436.06;5045505;28;20231;-70
2023/08/20 01:19:47;;;;;;;11.50;7.85;;;;;;;22.11;68.82;95437.41;5049855;28;20224;-71
2023/08/20 01:22:13;;;;;;;11.02;7.70;;;;;;;22.04;68.73;95444.06;5046318;28;20217;-71
2023/08/20 01:24:55;;;;;;;11.60;8.13;;;;;;;21.98;69.11;95429.06;5068734;28;20238;-71
2023/08/20 01:27:26;;;;;;;13.63;8.25;;;;;;;22.09;69.16;95431.53;5073380;28;20231;-70
2023/08/20 01:29:53;;;;;;;14.52;7.60;;;;;;;22.07;68.78;95431.00;5070260;28;20232;-71
2023/08/20 01:32:18;;;;;;;11.95;7.85;;;;;;;22.08;68.39;95431.81;5044744;28;20782;-70
2023/08/20 01:34:45;;;;;;;12.35;7.72;;;;;;;22.13;67.63;95429.16;5074248;28;20232;-71
2023/08/20 01:37:11;;;;;;;11.73;8.38;;;;;;;22.32;67.12;95427.66;5070522;28;20236;-71
2023/08/20 01:39:36;;;;;;;11.60;8.23;;;;;;;22.40;66.86;95429.81;5053020;28;20224;-71
2023/08/20 01:42:01;;;;;;;14.85;7.93;;;;;;;22.47;66.50;95421.59;5086629;28;20224;-70
2023/08/20 01:44:27;;;;;;;13.95;8.77;;;;;;;22.52;66.01;95417.06;5053193;28;20257;-71
2023/08/20 01:46:53;;;;;;;12.57;8.60;;;;;;;22.39;66.79;95419.41;5055690;28;20228;-71
2023/08/20 01:49:18;;;;;;;14.85;8.05;;;;;;;22.38;66.51;95410.59;5052668;28;20969;-71
2023/08/20 01:51:44;;;;;;;13.45;8.52;;;;;;;22.36;67.10;95411.94;5052889;28;20307;-71
2023/08/20 01:54:09;;;;;;;12.85;8.20;;;;;;;22.33;67.08;95409.81;5068766;28;20877;-71
2023/08/20 01:56:35;;;;;;;12.20;8.38;;;;;;;22.39;67.25;95398.06;5037762;28;20741;-70
2023/08/20 01:59:01;;;;;;;11.63;8.48;;;;;;;22.53;66.53;95399.19;5048597;28;20289;-71
2023/08/20 02:01:26;;;;;;;12.60;8.40;;;;;;;22.74;65.20;95399.00;5056169;28;20352;-70
2023/08/20 02:03:52;;;;;;;15.32;8.60;;;;;;;22.77;64.92;95406.50;5035772;28;20233;-71
2023/08/20 02:06:17;;;;;;;13.50;8.27;;;;;;;22.86;64.53;95404.13;5085184;28;20927;-71
2023/08/20 02:08:43;;;;;;;13.95;8.70;;;;;;;22.77;65.19;95400.34;5044926;28;20232;-72
2023/08/20 02:11:08;;;;;;;15.27;8.70;;;;;;;22.69;65.06;95393.66;5084947;28;20239;-70
2023/08/20 02:13:34;;;;;;;12.23;8.70;;;;;;;22.60;65.82;95397.88;5055693;28;20682;-74
2023/08/20 02:16:00;;;;;;;13.18;8.45;;;;;;;22.47;66.39;95381.56;5067461;28;20323;-74
2023/08/20 02:18:26;;;;;;;16.17;8.48;;;;;;;22.48;66.56;95383.97;5044409;28;20224;-74
2023/08/20 02:20:51;;;;;;;11.82;8.50;;;;;;;22.52;66.28;95379.69;5030332;28;20247;-75
2023/08/20 02:23:16;;;;;;;12.95;9.05;;;;;;;22.64;65.58;95380.31;5041541;28;20232;-75
2023/08/20 02:25:43;;;;;;;12.52;8.43;;;;;;;22.67;65.18;95378.97;5048561;28;20236;-75
2023/08/20 02:28:09;;;;;;;14.23;8.77;;;;;;;22.74;65.04;95383.00;5022403;28;20217;-75
2023/08/20 02:30:42;;;;;;;13.10;8.80;;;;;;;22.73;65.08;95380.59;5032181;28;20240;-75
2023/08/20 02:33:08;;;;;;;13.15;8.40;;;;;;;22.55;66.29;95381.84;5024097;28;20621;-75
2023/08/20 02:35:33;;;;;;;13.38;8.70;;;;;;;22.35;67.00;95375.66;5026036;28;20216;-74
2023/08/20 02:37:59;;;;;;;12.02;8.57;;;;;;;22.34;67.04;95374.84;5048985;28;20243;-73
2023/08/20 02:40:24;;;;;;;12.85;8.48;;;;;;;22.32;67.29;95382.31;5045761;28;20244;-74
2023/08/20 02:42:50;;;;;;;13.68;8.93;;;;;;;22.17;67.45;95386.78;5058518;28;20239;-75
2023/08/20 02:45:15;;;;;;;17.65;9.27;;;;;;;22.18;67.65;95375.06;5030814;28;20228;-74
2023/08/20 02:47:40;;;;;;;16.30;8.75;;;;;;;22.23;68.05;95393.75;5052998;28;20234;-73
2023/08/20 02:50:06;;;;;;;11.18;8.65;;;;;;;22.17;68.54;95389.44;5066441;28;20587;-75
2023/08/20 02:52:32;;;;;;;15.23;9.10;;;;;;;22.01;69.36;95388.56;5034325;28;20738;-74
2023/08/20 02:54:57;;;;;;;14.77;8.93;;;;;;;22.14;68.85;95393.44;5029593;28;20247;-75
2023/08/20 02:57:23;;;;;;;13.60;8.90;;;;;;;22.03;69.25;95394.44;5068894;28;20231;-75
2023/08/20 02:59:48;;;;;;;15.60;9.07;;;;;;;21.78;70.27;95383.63;5036115;28;20230;-75
2023/08/20 03:02:14;;;;;;;12.00;8.50;;;;;;;21.85;70.63;95397.56;5039668;28;20706;-75
2023/08/20 03:04:39;;;;;;;15.35;8.80;;;;;;;21.75;70.72;95397.47;5052812;28;20323;-75
2023/08/20 03:07:05;;;;;;;12.50;8.60;;;;;;;21.83;70.49;95399.66;5032502;28;20268;-76
2023/08/20 03:09:30;;;;;;;12.05;8.30;;;;;;;21.92;70.14;95398.94;5034067;28;20229;-75
2023/08/20 03:11:55;;;;;;;11.55;8.57;;;;;;;21.76;70.77;95402.53;5019869;28;20233;-75
2023/08/20 03:14:21;;;;;;;12.38;9.05;;;;;;;21.63;71.47;95399.50;5021497;28;20239;-75
2023/08/20 03:16:46;;;;;;;12.48;8.85;;;;;;;21.58;70.97;95396.81;5026952;28;20315;-75
2023/08/20 03:19:14;;;;;;;12.90;8.93;;;;;;;21.45;71.99;95406.84;5024954;28;20228;-75
2023/08/20 03:21:40;;;;;;;13.10;8.93;;;;;;;21.62;71.26;95400.56;5045495;28;20311;-75
2023/08/20 03:24:06;;;;;;;13.55;8.82;;;;;;;21.69;70.81;95401.94;5033196;28;20817;-74
2023/08/20 03:26:31;;;;;;;13.50;8.98;;;;;;;21.59;71.30;95395.75;5048956;28;20308;-75
2023/08/20 03:28:57;;;;;;;14.85;9.07;;;;;;;21.55;72.00;95405.31;5065823;28;20609;-75
2023/08/20 03:31:23;;;;;;;14.02;8.63;;;;;;;21.41;72.00;95399.63;5065515;28;20622;-76
2023/08/20 03:33:49;;;;;;;11.63;8.65;;;;;;;21.52;72.57;95403.94;5037789;28;20243;-71
2023/08/20 03:36:14;;;;;;;11.88;8.63;;;;;;;21.42;72.72;95398.56;5049370;28;20228;-70
2023/08/20 03:38:40;;;;;;;16.92;9.30;;;;;;;21.29;73.46;95404.31;5054413;28;20235;-69
2023/08/20 03:41:05;;;;;;;17.02;9.30;;;;;;;21.14;74.38;95396.19;5036470;28;20691;-71
2023/08/20 03:43:31;;;;;;;13.25;8.77;;;;;;;21.06;74.22;95397.47;5036799;28;20228;-71
2023/08/20 03:45:56;;;;;;;13.60;9.02;;;;;;;21.19;73.92;95405.03;5074061;28;20231;-71
2023/08/20 03:48:22;;;;;;;15.23;9.32;;;;;;;21.21;73.90;95396.78;5048366;28;20235;-72
2023/08/20 03:50:47;;;;;;;15.35;9.35;;;;;;;20.98;74.74;95389.09;5037379;28;20258;-70
2023/08/20 03:53:12;;;;;;;15.15;8.88;;;;;;;21.22;73.85;95383.22;5041855;28;20598;-70
2023/08/20 03:55:38;;;;;;;16.10;8.70;;;;;;;21.24;74.45;95386.44;5034109;28;20235;-71
2023/08/20 03:58:04;;;;;;;13.45;8.68;;;;;;;21.20;74.62;95385.34;5047802;28;20216;-72
2023/08/20 04:00:29;;;;;;;13.30;8.75;;;;;;;21.17;75.30;95385.84;5036092;28;20224;-71
2023/08/20 04:02:55;;;;;;;13.13;8.45;;;;;;;21.05;75.82;95387.06;5020524;28;20236;-71
2023/08/20 04:05:20;;;;;;;15.77;9.27;;;;;;;21.18;74.97;95387.47;5024875;28;20251;-69
2023/08/20 04:07:46;;;;;;;13.10;8.40;;;;;;;21.12;75.44;95385.78;5054898;28;20230;-70
2023/08/20 04:10:11;;;;;;;13.80;8.60;;;;;;;21.09;75.97;95383.63;5052109;28;20229;-71
2023/08/20 04:12:37;;;;;;;15.40;9.50;;;;;;;21.20;75.64;95385.34;5042568;28;20234;-75
2023/08/20 04:15:03;;;;;;;13.80;8.52;;;;;;;21.30;75.24;95393.41;5071306;28;20958;-74
2023/08/20 04:17:28;;;;;;;15.02;9.35;;;;;;;21.40;75.30;95390.00;5053120;28;20235;-74
2023/08/20 04:19:54;;;;;;;13.85;9.00;;;;;;;21.19;75.64;95389.06;5036058;28;20255;-75
2023/08/20 04:22:19;;;;;;;14.02;9.23;;;;;;;21.22;75.69;95380.56;5017878;28;20224;-76
2023/08/20 04:24:45;;;;;;;11.30;8.20;;;;;;;20.93;76.84;95391.69;5037718;28;20236;-75
2023/08/20 04:27:10;;;;;;;14.77;8.52;;;;;;;20.86;77.81;95386.59;5037159;28;20225;-74
2023/08/20 04:29:36;;;;;;;11.48;8.63;;;;;;;20.83;77.64;95393.22;5051456;28;20228;-75
2023/08/20 04:32:01;;;;;;;12.25;8.27;;;;;;;21.03;77.11;95389.16;5032474;28;20255;-74
2023/08/20 04:34:27;;;;;;;16.25;9.23;;;;;;;21.10;78.77;95387.91;5051186;28;20240;-75
2023/08/20 04:36:52;;;;;;;14.30;8.88;;;;;;;21.04;77.55;95383.56;5035904;28;20610;-75
2023/08/20 04:39:18;;;;;;;14.05;8.68;;;;;;;21.16;76.75;95394.88;5040741;28;20293;-75
2023/08/20 04:41:44;;;;;;;13.80;8.80;;;;;;;21.08;77.48;95394.53;5038471;28;20228;-74
2023/08/20 04:44:09;;;;;;;12.55;8.63;;;;;;;21.15;77.41;95392.47;5033892;28;20240;-74
2023/08/20 04:46:36;;;;;;;12.60;8.43;;;;;;;21.04;77.52;95391.53;5017102;28;20247;-75
2023/08/20 04:49:01;;;;;;;12.68;8.68;;;;;;;21.16;77.20;95394.88;5031848;28;20244;-75
2023/08/20 04:51:27;;;;;;;15.75;8.85;;;;;;;21.41;76.24;95400.44;5081153;28;20281;-75
2023/08/20 04:53:53;;;;;;;14.82;8.70;;;;;;;21.56;75.37;95402.41;5090395;28;20231;-75
2023/08/20 04:56:18;;;;;;;15.15;8.77;;;;;;;21.59;75.03;95398.44;5087048;28;20227;-75
2023/08/20 04:58:44;;;;;;;14.38;8.75;;;;;;;21.79;74.01;95398.53;5088506;28;20285;-75
2023/08/20 05:01:09;;;;;;;14.88;9.20;;;;;;;21.77;73.82;95400.66;5088344;28;20610;-74
2023/08/20 05:03:35;;;;;;;15.27;8.88;;;;;;;21.65;74.59;95400.84;5056685;28;20701;-75
2023/08/20 05:06:01;;;;;;;17.45;8.73;;;;;;;21.86;73.86;95409.81;5052439;28;20220;-73
2023/08/20 05:08:27;;;;;;;15.05;8.70;;;;;;;22.01;73.16;95400.06;5038366;28;20315;-74
2023/08/20 05:10:52;;;;;;;19.35;9.90;;;;;;;21.90;73.36;95400.25;5036158;28;20228;-75
2023/08/20 05:13:20;;;;;;;16.48;9.88;;;;;;;21.89;73.27;95401.31;5053442;28;20228;-74
2023/08/20 05:15:46;;;;;;;16.08;9.43;;;;;;;21.95;74.17;95397.59;5048979;28;20813;-74
2023/08/20 05:18:12;;;;;;;15.88;10.40;;;;;;;21.98;73.28;95405.88;5053713;28;20235;-75
2023/08/20 05:20:38;;;;;;;17.92;9.77;;;;;;;22.19;73.63;95411.34;5056570;28;20235;-74
2023/08/20 05:23:05;;;;;;;14.80;9.82;;;;;;;22.41;72.06;95420.75;5033633;28;20284;-75
2023/08/20 05:25:31;;;;;;;16.73;9.70;;;;;;;22.25;72.74;95419.09;5052635;28;20251;-75
2023/08/20 05:27:56;;;;;;;15.48;9.80;;;;;;;22.33;72.12;95418.59;5034569;28;20709;-74
2023/08/20 05:30:23;;;;;;;16.23;9.73;;;;;;;22.36;72.11;95419.94;5065956;28;20335;-75
2023/08/20 05:32:48;;;;;;;18.58;9.70;;;;;;;22.19;73.39;95417.44;5028934;28;20236;-74
2023/08/20 05:35:14;;;;;;;15.32;9.45;;;;;;;22.36;72.29;95423.41;5032100;28;20662;-75
2023/08/20 05:37:40;;;;;;;16.67;9.35;;;;;;;22.37;71.59;95424.22;5043978;28;20236;-74
2023/08/20 05:40:08;;;;;;;15.50;9.45;;;;;;;22.32;71.69;95427.66;5067566;28;20244;-75
2023/08/20 05:42:34;;;;;;;15.70;9.07;;;;;;;22.56;71.00;95428.84;5082106;28;20792;-75
2023/08/20 05:44:59;;;;;;;14.52;9.30;;;;;;;22.61;70.93;95425.41;5087302;28;20288;-75
2023/08/20 05:47:25;;;;;;;14.55;9.27;;;;;;;22.60;70.30;95431.75;5034906;28;20239;-74
2023/08/20 05:49:50;;;;;;;19.13;9.48;;;;;;;22.45;70.52;95443.19;5087701;28;20232;-75
2023/08/20 05:52:15;;;;;;;14.63;9.00;;;;;;;22.51;71.60;95439.50;5038623;28;20752;-75
2023/08/20 05:54:41;;;;;;;15.07;8.88;;;;;;;22.50;71.74;95429.88;5051424;28;20231;-75
2023/08/20 05:57:07;;;;;;;17.08;9.43;;;;;;;22.63;70.27;95431.28;5070401;28;20228;-75
2023/08/20 05:59:32;;;;;;;16.67;8.80;;;;;;;22.59;71.37;95432.84;5039480;28;20224;-75
2023/08/20 06:01:58;;;;;;;17.45;9.32;;;;;;;22.72;71.62;95432.38;5051223;28;20277;-73
2023/08/20 06:04:23;;;;;;;14.00;9.48;;;;;;;22.82;70.41;95426.25;5071395;28;20232;-74
2023/08/20 06:06:49;;;;;;;16.40;9.77;;;;;;;22.79;70.29;95428.41;5054866;28;20293;-75
2023/08/20 06:09:14;;;;;;;17.52;9.48;;;;;;;22.80;69.33;95423.88;5033347;28;20416;-75
2023/08/20 06:11:40;;;;;;;16.92;9.75;;;;;;;22.80;70.35;95426.53;5054415;28;20235;-75
2023/08/20 06:14:05;;;;;;;15.00;9.63;;;;;;;22.99;69.38;95432.19;5047052;28;20336;-74
2023/08/20 06:16:31;;;;;;;19.38;10.18;;;;;;;23.03;69.97;95430.56;5070479;28;20235;-75
2023/08/20 06:18:57;;;;;;;16.10;9.13;;;;;;;23.02;70.35;95429.00;5057039;28;20247;-75
2023/08/20 06:21:23;;;;;;;15.73;8.95;;;;;;;23.10;69.92;95437.28;5042005;28;20239;-74
2023/08/20 06:23:48;;;;;;;17.02;9.80;;;;;;;23.18;68.59;95438.63;5060496;28;20724;-75
2023/08/20 06:26:15;;;;;;;18.77;9.95;;;;;;;23.40;67.76;95441.91;5052982;28;20315;-76
2023/08/20 06:28:41;;;;;;;14.82;9.10;;;;;;;23.36;67.77;95436.25;5053485;28;20311;-75
2023/08/20 06:31:07;;;;;;;16.33;9.65;;;;;;;23.34;68.53;95433.03;5044513;28;20844;-75
2023/08/20 06:33:32;;;;;;;17.25;9.57;;;;;;;23.52;67.17;95434.41;5060564;28;20229;-75
2023/08/20 06:35:57;;;;;;;14.95;10.05;;;;;;;23.60;66.94;95422.34;5071048;28;20243;-74
2023/08/20 06:38:23;;;;;;;17.90;9.27;;;;;;;23.63;66.65;95432.53;5054738;28;20236;-76
2023/08/20 06:40:48;;;;;;;15.98;9.50;;;;;;;23.79;65.99;95436.78;5086141;28;20228;-75
2023/08/20 06:43:14;;;;;;;15.65;9.57;;;;;;;23.78;66.48;95433.34;5069852;28;20239;-75
2023/08/20 06:45:39;;;;;;;14.25;9.55;;;;;;;23.77;65.86;95436.25;5069761;28;20266;-73
2023/08/20 06:48:05;;;;;;;15.18;9.23;;;;;;;23.81;66.09;95438.13;5036030;28;20244;-74
2023/08/20 06:50:30;;;;;;;14.35;9.10;;;;;;;23.95;65.38;95433.03;5052713;28;20220;-75
2023/08/20 06:52:56;;;;;;;14.20;9.38;;;;;;;24.11;64.84;95440.00;5068367;28;20305;-75
2023/08/20 06:55:21;;;;;;;18.23;9.48;;;;;;;24.21;64.44;95431.94;5085951;28;20620;-75
2023/08/20 06:57:47;;;;;;;13.25;9.50;;;;;;;24.28;63.92;95432.47;5056106;28;20224;-75
2023/08/20 07:00:13;;;;;;;15.25;9.07;;;;;;;24.46;63.13;95437.19;5050609;28;20587;-75
2023/08/20 07:02:38;;;;;;;12.80;9.35;;;;;;;24.45;63.44;95437.47;5037361;28;20232;-74
2023/08/20 07:05:04;;;;;;;14.82;9.10;;;;;;;24.49;63.29;95439.34;5070443;28;20228;-75
2023/08/20 07:07:29;;;;;;;14.43;9.52;;;;;;;24.53;62.45;95436.91;5067330;28;20285;-76
2023/08/20 07:09:55;;;;;;;16.75;9.88;;;;;;;24.64;62.59;95435.81;5050970;28;21127;-76
2023/08/20 07:12:20;;;;;;;17.80;9.65;;;;;;;24.84;61.59;95438.41;5053058;28;20312;-75
2023/08/20 07:14:46;;;;;;;15.15;9.55;;;;;;;24.96;61.70;95433.50;5050883;28;20260;-74
2023/08/20 07:17:11;;;;;;;12.40;9.00;;;;;;;24.95;61.14;95434.59;5050213;28;20239;-74
2023/08/20 07:19:37;;;;;;;16.27;9.25;;;;;;;24.96;60.83;95430.06;5056853;28;20243;-74
2023/08/20 07:22:03;;;;;;;19.05;9.13;;;;;;;25.08;61.43;95433.97;5069214;28;20232;-74
2023/08/20 07:24:30;;;;;;;18.23;8.77;;;;;;;25.22;59.39;95442.22;5047981;28;20740;-74
2023/08/20 07:27:00;;;;;;;13.25;8.63;;;;;;;25.22;59.65;95434.19;5032032;28;20288;-72
2023/08/20 07:29:26;;;;;;;14.63;8.13;;;;;;;25.34;58.62;95443.44;5051096;28;20506;-70
2023/08/20 07:31:52;;;;;;;13.98;8.70;;;;;;;25.39;58.78;95438.06;5038371;28;20228;-72
2023/08/20 07:34:17;;;;;;;16.10;8.10;;;;;;;25.39;57.95;95438.06;5042282;28;20242;-71
2023/08/20 07:36:43;;;;;;;13.20;7.63;;;;;;;25.50;56.81;95433.47;5054370;28;20220;-70
2023/08/20 07:39:08;;;;;;;11.73;7.25;;;;;;;25.59;56.94;95436.31;5041559;28;20668;-70
2023/08/20 07:41:34;;;;;;;10.35;7.57;;;;;;;25.65;56.65;95438.69;5072150;28;20743;-70
2023/08/20 07:43:59;;;;;;;12.70;7.45;;;;;;;25.77;56.47;95435.66;5057183;28;20741;-71
2023/08/20 07:46:25;;;;;;;10.95;7.43;;;;;;;25.90;55.98;95438.47;5050367;28;20228;-72
2023/08/20 07:48:50;;;;;;;14.75;7.70;;;;;;;25.89;55.68;95433.38;5023265;28;20236;-71
2023/08/20 07:51:16;;;;;;;12.82;7.10;;;;;;;26.07;54.86;95438.84;5015758;28;20259;-71
2023/08/20 07:53:41;;;;;;;10.80;7.32;;;;;;;26.17;55.58;95435.28;5049064;28;20250;-70
2023/08/20 07:56:08;;;;;;;10.82;7.32;;;;;;;26.21;54.58;95436.31;5054856;28;20243;-71
2023/08/20 07:58:34;;;;;;;11.65;6.80;;;;;;;26.45;54.42;95444.38;5037982;28;20228;-70
2023/08/20 08:00:59;;;;;;;13.35;7.30;;;;;;;26.61;53.52;95443.91;5037011;28;20278;-72
2023/08/20 08:03:26;;;;;;;12.73;7.13;;;;;;;26.61;53.99;95437.75;5042831;28;20712;-71
2023/08/20 08:05:52;;;;;;;13.75;7.43;;;;;;;26.64;53.80;95440.66;5047857;28;20646;-71
2023/08/20 08:08:18;;;;;;;13.27;7.47;;;;;;;26.75;52.32;95438.66;5036017;28;20704;-71
2023/08/20 08:10:44;;;;;;;16.40;6.97;;;;;;;26.88;51.21;95435.28;5047128;28;20233;-72
2023/08/20 08:13:11;;;;;;;10.15;7.00;;;;;;;26.93;50.81;95440.59;5068064;28;20235;-71
2023/08/20 08:15:37;;;;;;;9.27;6.53;;;;;;;26.90;49.80;95432.28;5052035;28;20220;-72
2023/08/20 08:18:03;;;;;;;8.50;6.63;;;;;;;26.91;50.58;95439.28;5050444;28;20672;-72
2023/08/20 08:20:28;;;;;;;8.88;6.72;;;;;;;27.01;50.25;95439.16;5041188;28;21008;-71
2023/08/20 08:22:54;;;;;;;8.65;6.60;;;;;;;27.03;49.88;95436.97;5034064;28;20228;-71
2023/08/20 08:25:20;;;;;;;11.80;6.53;;;;;;;27.17;48.98;95443.22;5048834;28;20611;-71
2023/08/20 08:27:46;;;;;;;12.02;6.68;;;;;;;27.16;48.93;95437.03;5056021;28;20263;-72
2023/08/20 08:30:11;;;;;;;10.02;6.60;;;;;;;27.23;49.03;95447.41;5052333;28;20726;-72
2023/08/20 08:32:37;;;;;;;12.43;6.85;;;;;;;27.36;48.45;95435.94;5056570;28;20626;-72
2023/08/20 08:35:02;;;;;;;10.93;6.70;;;;;;;27.36;48.34;95439.44;5035786;28;20240;-72
2023/08/20 08:37:28;;;;;;;11.45;6.18;;;;;;;27.56;46.04;95438.34;5053826;28;21007;-72
2023/08/20 08:39:53;;;;;;;8.23;6.13;;;;;;;27.58;46.67;95438.06;5055476;28;20240;-72
2023/08/20 08:42:19;;;;;;;9.15;6.50;;;;;;;27.54;47.00;95431.69;5059968;28;20737;-72
2023/08/20 08:44:45;;;;;;;7.70;6.50;;;;;;;27.64;47.92;95442.25;5051397;28;20228;-72
2023/08/20 08:47:10;;;;;;;11.70;5.75;;;;;;;27.84;45.58;95437.38;5034749;28;20601;-71
2023/08/20 08:49:36;;;;;;;8.40;5.90;;;;;;;27.83;46.11;95433.06;5017074;28;20300;-71
2023/08/20 08:52:01;;;;;;;12.27;6.07;;;;;;;27.92;45.72;95431.28;5067462;28;20676;-72
2023/08/20 08:54:27;;;;;;;8.75;5.82;;;;;;;27.94;46.05;95434.47;5053403;28;20225;-71
2023/08/20 08:56:52;;;;;;;9.23;6.00;;;;;;;28.05;44.23;95440.53;5029482;28;20343;-72
2023/08/20 08:59:19;;;;;;;7.60;6.40;;;;;;;28.16;45.05;95441.16;5029387;28;20250;-72
2023/08/20 09:01:44;;;;;;;13.07;6.40;;;;;;;28.28;43.67;95431.47;5055070;28;20215;-71
2023/08/20 09:04:09;;;;;;;10.95;5.53;;;;;;;28.22;43.10;95437.25;5071165;28;20278;-73
2023/08/20 09:06:49;;;;;;;8.60;6.07;;;;;;;28.26;42.94;95433.66;5057347;28;20240;-72
2023/08/20 09:09:14;;;;;;;8.68;6.05;;;;;;;28.27;44.32;95434.47;5072752;28;20235;-72
2023/08/20 09:11:40;;;;;;;11.20;5.72;;;;;;;28.36;43.37;95433.47;5056282;28;20228;-71
2023/08/20 09:14:05;;;;;;;10.73;5.65;;;;;;;28.43;43.06;95436.56;5043615;28;20237;-71
2023/08/20 09:16:31;;;;;;;10.02;5.80;;;;;;;28.37;43.96;95428.91;5055161;28;20229;-71
2023/08/20 09:18:59;;;;;;;8.13;5.50;;;;;;;28.52;42.08;95433.97;5043457;28;20237;-72
2023/08/20 09:21:28;;;;;;;10.70;5.43;;;;;;;28.68;42.48;95435.31;5038019;28;20232;-71
2023/08/20 09:23:53;;;;;;;8.43;5.40;;;;;;;28.66;41.34;95427.50;5054099;28;20239;-73
2023/08/20 09:26:19;;;;;;;11.48;4.75;;;;;;;28.77;40.23;95433.50;5052101;28;20220;-72
2023/08/20 09:28:46;;;;;;;10.13;5.07;;;;;;;28.79;40.69;95427.81;5037618;28;20674;-73
2023/08/20 09:31:12;;;;;;;7.05;4.93;;;;;;;29.03;40.32;95429.16;5056259;28;20243;-72
2023/08/20 09:34:04;;;;;;;9.82;5.38;;;;;;;29.10;39.48;95431.44;5049704;28;20318;-72
2023/08/20 09:36:31;;;;;;;10.05;5.20;;;;;;;29.10;39.82;95436.84;5054977;28;20991;-73
2023/08/20 09:38:57;;;;;;;9.45;5.40;;;;;;;29.19;40.72;95432.34;5038587;28;20236;-72
2023/08/20 09:41:23;;;;;;;6.00;5.10;;;;;;;29.27;40.69;95431.63;5031219;28;20278;-71
2023/08/20 09:43:48;;;;;;;7.80;5.32;;;;;;;29.26;41.23;95424.63;5023735;28;20259;-72
2023/08/20 09:46:14;;;;;;;9.55;5.43;;;;;;;29.23;41.29;95428.72;5048148;28;20306;-72
2023/08/20 09:48:39;;;;;;;8.85;4.78;;;;;;;29.21;39.20;95422.84;5032760;28;20228;-71
2023/08/20 09:51:07;;;;;;;6.60;4.18;;;;;;;29.23;38.50;95422.56;5064842;28;20328;-72
2023/08/20 09:53:42;;;;;;;7.05;4.50;;;;;;;29.32;39.18;95423.44;5070734;28;20362;-72
2023/08/20 09:56:10;;;;;;;6.53;4.13;;;;;;;29.50;37.62;95427.84;5085734;28;20297;-71
2023/08/20 09:58:37;;;;;;;10.00;4.20;;;;;;;29.53;37.95;95412.94;5067562;28;20263;-72
2023/08/20 10:01:03;;;;;;;7.70;4.32;;;;;;;29.63;38.03;95415.41;5084094;28;20228;-72
2023/08/20 10:03:28;;;;;;;8.38;4.53;;;;;;;29.75;37.98;95423.75;5044538;28;20303;-71
2023/08/20 10:05:54;;;;;;;6.97;4.13;;;;;;;29.77;37.25;95426.97;5038359;28;20289;-71
2023/08/20 10:08:19;;;;;;;6.13;4.50;;;;;;;29.92;37.47;95418.50;5030859;28;20606;-72
2023/08/20 10:10:45;;;;;;;6.75;4.40;;;;;;;29.81;36.61;95427.94;5045208;28;20251;-72
2023/08/20 10:13:12;;;;;;;5.63;4.05;;;;;;;29.89;37.58;95421.81;5035805;28;20311;-71
2023/08/20 10:15:38;;;;;;;7.78;4.35;;;;;;;30.04;37.63;95424.13;5055192;28;20232;-71
2023/08/20 10:18:04;;;;;;;6.57;4.10;;;;;;;30.02;36.50;95417.44;5035206;28;20230;-72
2023/08/20 10:20:32;;;;;;;7.45;4.32;;;;;;;30.11;35.99;95427.19;5049971;28;20236;-71
2023/08/20 10:23:02;;;;;;;5.30;3.85;;;;;;;29.95;36.32;95429.47;5035515;28;20223;-73
2023/08/20 10:25:29;;;;;;;5.75;4.00;;;;;;;30.08;36.38;95432.38;5036203;28;20628;-71
2023/08/20 10:27:55;;;;;;;7.07;4.28;;;;;;;30.17;37.51;95425.94;5049306;28;20227;-72
2023/08/20 10:30:25;;;;;;;6.30;4.13;;;;;;;30.21;36.01;95424.22;5045483;28;20224;-71
2023/08/20 10:32:52;;;;;;;7.00;4.40;;;;;;;30.24;36.28;95420.88;5055396;28;20236;-71
2023/08/20 10:35:27;;;;;;;6.10;3.90;;;;;;;30.39;37.12;95407.00;5055097;28;20598;-71
2023/08/20 10:38:02;;;;;;;5.63;3.78;;;;;;;30.47;37.27;95417.03;5039021;28;20369;-71
2023/08/20 10:40:56;;;;;;;5.82;4.30;;;;;;;30.70;37.36;95406.13;5087263;28;20247;-72
2023/08/20 10:43:32;;;;;;;5.95;4.00;;;;;;;30.59;36.52;95402.94;5051345;28;20228;-70
2023/08/20 10:46:13;;;;;;;8.27;4.30;;;;;;;30.69;35.69;95404.53;5033835;28;20230;-72
2023/08/20 10:48:39;;;;;;;6.10;4.30;;;;;;;30.81;36.99;95402.03;5054582;28;20238;-72
2023/08/20 10:51:11;;;;;;;7.57;4.20;;;;;;;30.83;35.99;95405.22;5040690;28;20589;-72
2023/08/20 10:53:37;;;;;;;4.53;3.97;;;;;;;30.81;36.21;95400.09;5068529;28;20733;-71
2023/08/20 10:56:10;;;;;;;6.47;4.05;;;;;;;30.79;35.48;95391.50;5041985;28;20292;-72
2023/08/20 10:58:40;;;;;;;8.02;4.20;;;;;;;30.95;34.46;95398.13;5068104;28;20228;-72
2023/08/20 11:01:15;;;;;;;7.90;4.47;;;;;;;30.98;34.24;95397.47;5024518;28;20294;-72
2023/08/20 11:03:43;;;;;;;7.00;4.20;;;;;;;30.98;35.46;95391.25;5049363;28;20238;-71
2023/08/20 11:06:08;;;;;;;7.82;4.00;;;;;;;31.13;34.05;95394.31;5066997;28;20977;-72
2023/08/20 11:08:34;;;;;;;6.97;3.97;;;;;;;31.24;33.88;95389.38;5065048;28;20220;-72
2023/08/20 11:10:59;;;;;;;6.55;4.10;;;;;;;31.28;34.39;95399.25;5051645;28;20300;-72
2023/08/20 11:13:25;;;;;;;5.75;4.30;;;;;;;31.24;34.45;95383.94;5051590;28;20239;-73
2023/08/20 11:15:51;;;;;;;9.40;4.10;;;;;;;31.15;35.06;95381.25;5067364;28;20615;-71
2023/08/20 11:18:16;;;;;;;6.53;4.18;;;;;;;31.13;35.14;95382.69;5049273;28;20330;-72
2023/08/20 11:20:42;;;;;;;5.85;4.00;;;;;;;31.28;34.59;95385.72;5049486;28;20298;-71
2023/08/20 11:23:08;;;;;;;6.13;3.80;;;;;;;31.28;34.35;95376.81;5015881;28;20235;-72